Erie, PA (16501)

11:52 PM EDT on September 04, 2015 (GMT -0400)
South Erie | | Change Station
CLOSE
Current Station
Personal Weather Station
Location: Erie, PA
Elevation: 833 ft
Nearby Weather Stations

Elev 833 ft 42.09 °N, 80.08 °W | Updated 2 minutes ago

Rain
Rain
71.8 °F
Feels Like 74 °F
N
0.0
Wind Variable Wind from SE
Gusts 0.0 mph

Today
High -- | Low -- °F
--% Chance of Precip.
Yesterday
High -- | Low -- °F
Precip. -- in
6:48 AM 7:49 PM
Waning Gibbous, 53% visible
Pressure 30.07 in
Visibility 10.0 miles
Clouds Few 10000 ft
Scattered Clouds 12000 ft
Heat Index 74 °F
Dew Point 63 °F
Humidity 74%
Rainfall 0.00 in
Snow Depth Not available.
UV 0 out of 12
Pollen 10.20 out of 12
Air Quality Not available.
Flu Activity Not available.
METAR KERI 050251Z 15008KT 10SM FEW100 SCT120 23/17 A3008 RMK AO2 SLP182 T02330167 58001
Pressure 30.07 in
Visibility 10.0 miles
Clouds Few 10000 ft
Scattered Clouds 12000 ft
Heat Index 74 °F
Dew Point 63 °F
Humidity 74%
Rainfall 0.00 in
Snow Depth Not available.
UV 0 out of 12
Pollen 10.20 out of 12
Air Quality Not available.
Flu Activity Not available.
METAR KERI 050251Z 15008KT 10SM FEW100 SCT120 23/17 A3008 RMK AO2 SLP182 T02330167 58001

10-Day Weather Forecast

×

Almanac

Astronomy

Sep. 04, 2015 Rise Set
Actual Time
Civil Twilight
Nautical Twilight
Astronomical Twilight
Moon
Length of Visible Light
Length of Day
Tomorrow will be .
, % of the Moon is Illuminated

Today's Extremes

State Highs State Lows

Community

WunderPhotos

Upload Photos

1,852,408 photos uploaded!

WunderBlogs® & News

Nearby

Air Quality

  Air Quality AQ Index Pollutant
Not available.

Snow Depth

Station Depth Elevation

Earthquake Activity

City Distance Mag. Time & Date
Minimum magnitude displayed is 2.5.

Coastal Water Temperatures

Place Temperature

Stations

Nearby Weather Stations

Station Location Temp. Windchill Dew Point Humidity Wind Precip. Elev Updated Type